Time;durP1;ratioP1;P1;durP2;ratioP2;P2;SDS_P1;SDS_P2;PMS_P1;PMS_P2;Temp;Humidity;BMP_temperature;BMP_pressure;BME280_temperature;BME280_humidity;BME280_pressure;Samples;Min_cycle;Max_cycle;Signal;HPM_P1;HPM_P2
2022/12/13 00:01:20;;;;;;;;;37.50;36.50;;;;;-0.29;63.79;100058.69;5052901;28;46021;-56
2022/12/13 00:03:46;;;;;;;;;42.75;34.75;;;;;-0.25;64.16;100053.81;5054392;28;45313;-55
2022/12/13 00:06:11;;;;;;;;;45.75;33.75;;;;;-0.33;63.50;100051.06;5049494;27;45655;-54
2022/12/13 00:08:37;;;;;;;;;34.25;27.50;;;;;-0.32;63.18;100042.78;5042319;28;45408;-51
2022/12/13 00:11:05;;;;;;;;;32.75;29.50;;;;;-0.61;63.62;100002.63;5054455;28;47282;-53
2022/12/13 00:13:31;;;;;;;;;37.75;32.50;;;;;-0.38;63.20;100042.59;5056437;28;46008;-58
2022/12/13 00:15:57;;;;;;;;;35.00;32.25;;;;;-0.34;63.03;100046.66;5057203;28;45423;-56
2022/12/13 00:18:23;;;;;;;;;22.50;20.50;;;;;-0.33;63.09;100043.78;5056213;28;45411;-54
2022/12/13 00:20:48;;;;;;;;;21.00;18.25;;;;;-0.42;63.05;100023.19;5057802;28;46308;-54
2022/12/13 00:23:14;;;;;;;;;30.25;26.00;;;;;-0.39;62.90;100038.22;5056093;28;45382;-54
2022/12/13 00:25:39;;;;;;;;;37.25;28.25;;;;;-0.41;62.43;100033.78;5058019;28;45302;-54
2022/12/13 00:28:05;;;;;;;;;37.00;29.25;;;;;-0.35;62.81;100037.72;5056578;28;45833;-54
2022/12/13 00:30:31;;;;;;;;;36.50;31.00;;;;;-0.35;63.33;100029.63;5057419;28;46042;-54
2022/12/13 00:32:56;;;;;;;;;35.00;30.25;;;;;-0.35;62.85;100028.78;5056227;28;45319;-53
2022/12/13 00:35:22;;;;;;;;;36.50;27.00;;;;;-0.37;62.83;100030.78;5057299;28;45208;-56
2022/12/13 00:37:47;;;;;;;;;30.50;24.75;;;;;-0.62;63.16;99988.34;5068087;28;45187;-53
2022/12/13 00:40:13;;;;;;;;;34.75;27.50;;;;;-0.37;63.07;100030.78;5077693;28;46739;-57
2022/12/13 00:42:38;;;;;;;;;31.50;27.75;;;;;-0.43;62.32;100018.78;5076165;28;45321;-56
2022/12/13 00:45:04;;;;;;;;;33.00;26.75;;;;;-0.43;63.01;100025.03;5077874;28;45296;-57
2022/12/13 00:47:30;;;;;;;;;30.00;27.25;;;;;-0.39;62.37;100022.84;5076621;28;45439;-57
2022/12/13 00:49:56;;;;;;;;;42.00;29.50;;;;;-0.34;62.66;100025.06;5077549;27;46382;-56
2022/12/13 00:52:21;;;;;;;;;23.75;18.75;;;;;-0.35;62.09;100021.53;5077589;28;45375;-55
2022/12/13 00:54:46;;;;;;;;;37.50;33.25;;;;;-0.44;62.32;100006.28;5076728;28;45368;-56
2022/12/13 00:57:12;;;;;;;;;34.75;26.25;;;;;-0.71;62.67;99967.69;5077821;28;45502;-55
2022/12/13 00:59:37;;;;;;;;;28.25;25.75;;;;;-0.39;62.70;100022.03;5077458;28;46152;-54
2022/12/13 01:02:03;;;;;;;;;27.50;25.75;;;;;-0.67;62.39;99971.78;5077395;28;45406;-54
2022/12/13 01:04:28;;;;;;;;;29.75;24.25;;;;;-0.36;62.43;100025.25;5077917;27;45403;-54
2022/12/13 01:06:54;;;;;;;;;35.50;29.00;;;;;-0.57;62.54;99985.16;5076737;28;45336;-56
2022/12/13 01:09:26;;;;;;;;;36.75;27.00;;;;;-0.46;62.61;99992.13;5075883;28;46872;-55
2022/12/13 01:11:58;;;;;;;;;40.00;27.75;;;;;-0.41;62.20;100009.53;5059088;28;45539;-55
2022/12/13 01:14:23;;;;;;;;;29.25;27.00;;;;;-0.36;61.99;100013.59;5077012;27;45333;-57
2022/12/13 01:16:49;;;;;;;;;31.75;22.50;;;;;-0.36;62.07;100014.47;5077163;28;45535;-58
2022/12/13 01:19:14;;;;;;;;;36.50;27.00;;;;;-0.28;61.59;100025.28;5075827;28;46355;-56
2022/12/13 01:21:40;;;;;;;;;22.50;21.25;;;;;-0.26;61.72;100022.44;5077398;28;45358;-57
2022/12/13 01:24:05;;;;;;;;;30.50;24.75;;;;;-0.26;62.33;100019.75;5077153;28;45467;-56
2022/12/13 01:26:31;;;;;;;;;24.50;22.50;;;;;-0.53;61.58;99967.66;5075814;28;45429;-56
2022/12/13 01:28:57;;;;;;;;;35.00;26.50;;;;;-0.50;61.38;99988.06;5076800;28;46228;-53
2022/12/13 01:31:22;;;;;;;;;30.75;22.50;;;;;-0.26;61.48;100014.34;5076575;27;45451;-53
2022/12/13 01:33:48;;;;;;;;;25.75;23.00;;;;;-0.32;61.29;100009.59;5076931;28;45327;-55
2022/12/13 01:36:15;;;;;;;;;23.00;23.00;;;;;-0.32;60.97;100004.19;5075708;28;45662;-54
2022/12/13 01:38:41;;;;;;;;;27.75;21.00;;;;;-0.36;61.47;100006.38;5057994;28;45655;-57
2022/12/13 01:41:06;;;;;;;;;29.75;26.50;;;;;-0.32;61.25;100013.13;5056562;28;45377;-52
2022/12/13 01:43:41;;;;;;;;;25.50;20.25;;;;;-0.28;61.17;100002.88;5055181;28;45498;-54
2022/12/13 01:46:07;;;;;;;;;28.75;25.50;;;;;-0.60;60.16;99961.19;5057141;28;45128;-52
2022/12/13 01:48:35;;;;;;;;;27.75;24.50;;;;;-0.45;60.52;99991.97;5038146;28;46013;-54
2022/12/13 01:51:01;;;;;;;;;27.50;20.25;;;;;-0.35;61.11;100005.38;5055091;28;45468;-57
2022/12/13 01:53:29;;;;;;;;;21.50;19.75;;;;;-0.34;60.58;100007.06;5038617;28;45502;-55
2022/12/13 01:55:56;;;;;;;;;30.25;21.25;;;;;-0.38;61.03;99989.47;5055459;28;45226;-54
2022/12/13 01:58:22;;;;;;;;;26.00;19.75;;;;;-0.32;61.11;100010.44;5055069;28;45882;-54
2022/12/13 02:00:47;;;;;;;;;27.25;25.00;;;;;-0.30;61.01;100004.88;5055399;28;45313;-54
2022/12/13 02:03:13;;;;;;;;;24.00;18.25;;;;;-0.27;60.58;100012.63;5056473;28;45334;-52
2022/12/13 02:05:44;;;;;;;;;18.00;18.00;;;;;-0.33;60.55;100010.59;5055421;28;45580;-55
2022/12/13 02:08:10;;;;;;;;;11.25;8.00;;;;;-0.25;59.63;100020.59;5055108;28;45339;-55
2022/12/13 02:10:36;;;;;;;;;23.25;21.25;;;;;-0.31;60.36;100013.97;5038245;28;45456;-55
2022/12/13 02:13:02;;;;;;;;;24.25;20.50;;;;;-0.29;60.50;100015.53;5056144;28;45266;-54
2022/12/13 02:15:43;;;;;;;;;28.50;23.00;;;;;-0.49;60.03;99989.78;5056284;28;45336;-50
2022/12/13 02:18:45;;;;;;;;;28.50;18.00;;;;;-0.32;59.95;100023.91;5040059;28;46692;-52
2022/12/13 02:21:12;;;;;;;;;24.25;19.25;;;;;-0.41;60.03;100004.13;5056290;28;45784;-53
2022/12/13 02:24:08;;;;;;;;;26.50;22.00;;;;;-0.46;59.97;99995.69;5054973;28;45523;-54
2022/12/13 02:26:57;;;;;;;;;26.50;22.25;;;;;-0.50;59.81;99982.66;5054766;28;45352;-57
2022/12/13 02:29:57;;;;;;;;;27.75;26.00;;;;;-0.30;59.89;100007.56;5036671;28;45955;-56
2022/12/13 02:32:28;;;;;;;;;20.75;19.50;;;;;-0.35;59.86;100012.59;5055879;28;45445;-56
2022/12/13 02:35:01;;;;;;;;;29.75;23.50;;;;;-0.59;59.41;99971.81;5055568;28;45517;-53
2022/12/13 02:37:32;;;;;;;;;21.00;20.00;;;;;-0.35;59.83;100015.28;5057173;28;45253;-56
2022/12/13 02:40:08;;;;;;;;;23.75;20.75;;;;;-0.35;59.89;100010.75;5075725;27;45911;-55
2022/12/13 02:42:36;;;;;;;;;25.00;20.50;;;;;-1.10;59.29;99899.72;5058064;28;45357;-54
2022/12/13 02:45:04;;;;;;;;;27.00;22.00;;;;;-0.38;59.39;100008.34;5057863;28;45231;-56
2022/12/13 02:47:30;;;;;;;;;26.50;22.00;;;;;-0.39;59.49;100001.28;5029557;28;45348;-56
2022/12/13 02:49:57;;;;;;;;;29.00;25.75;;;;;-0.56;59.37;99987.69;5054981;28;46567;-54
2022/12/13 02:52:24;;;;;;;;;26.25;22.25;;;;;-0.52;59.50;100001.72;5037355;28;45928;-51
2022/12/13 02:54:50;;;;;;;;;27.25;20.75;;;;;-0.90;59.55;99931.00;5037527;28;45363;-53
2022/12/13 02:57:31;;;;;;;;;19.25;19.00;;;;;-0.44;59.37;100007.16;5055869;28;45475;-55
2022/12/13 02:59:58;;;;;;;;;21.75;19.50;;;;;-0.76;58.83;99953.88;5055317;28;45547;-55
2022/12/13 03:02:37;;;;;;;;;32.25;22.75;;;;;-0.43;59.27;100000.75;5055428;28;45387;-52
2022/12/13 03:08:24;;;;;;;;;22.75;22.00;;;;;-0.55;59.32;99992.09;5055617;28;45357;-51
2022/12/13 03:11:02;;;;;;;;;25.00;15.50;;;;;-0.52;59.03;99995.47;5054031;28;46183;-54
2022/12/13 03:13:35;;;;;;;;;23.50;21.00;;;;;-0.55;58.74;99989.38;5055414;28;45380;-55
2022/12/13 03:16:23;;;;;;;;;25.50;21.00;;;;;-0.87;58.36;99938.78;5054446;28;45414;-55
2022/12/13 03:18:50;;;;;;;;;19.00;17.50;;;;;-0.61;58.85;99973.84;5054916;28;45364;-53
2022/12/13 03:21:15;;;;;;;;;26.50;23.50;;;;;-0.57;58.69;99985.97;5053916;28;45373;-55
2022/12/13 03:23:41;;;;;;;;;20.50;19.00;;;;;-0.57;58.58;99982.47;5053592;28;45514;-57
2022/12/13 03:26:28;;;;;;;;;25.25;21.50;;;;;-0.87;58.80;99918.06;5055417;28;45367;-55
2022/12/13 03:28:54;;;;;;;;;30.00;26.25;;;;;-0.56;58.46;99981.44;5053734;28;46303;-57
2022/12/13 03:31:19;;;;;;;;;24.00;23.50;;;;;-0.61;58.53;99960.38;5053587;28;46523;-56
2022/12/13 03:33:45;;;;;;;;;14.75;14.75;;;;;-0.56;58.06;99973.38;5054955;28;45313;-52
2022/12/13 03:36:11;;;;;;;;;31.75;18.50;;;;;-0.60;58.80;99955.81;5055145;28;45359;-54
2022/12/13 03:38:37;;;;;;;;;23.00;21.50;;;;;-0.76;58.47;99935.81;5064805;28;45371;-53
2022/12/13 03:41:05;;;;;;;;;21.50;19.50;;;;;-0.58;58.49;99970.81;5074995;27;45623;-53
2022/12/13 03:43:30;;;;;;;;;26.50;21.25;;;;;-0.75;58.47;99932.13;5056512;28;45560;-55
2022/12/13 03:45:56;;;;;;;;;29.25;24.50;;;;;-0.62;58.24;99969.47;5056705;28;45421;-55
2022/12/13 03:48:22;;;;;;;;;23.25;19.00;;;;;-0.62;58.36;99968.59;5073360;28;45424;-55
2022/12/13 03:50:47;;;;;;;;;20.00;19.75;;;;;-0.59;58.90;99981.78;5074587;27;46005;-56
2022/12/13 03:53:13;;;;;;;;;23.75;18.50;;;;;-0.62;57.88;99988.34;5073462;28;45479;-56
2022/12/13 03:55:38;;;;;;;;;19.75;14.75;;;;;-0.69;58.09;99982.72;5074601;27;45450;-56
2022/12/13 03:58:04;;;;;;;;;26.00;20.75;;;;;-1.07;58.18;99924.66;5073723;28;45298;-53
2022/12/13 04:00:29;;;;;;;;;22.75;20.50;;;;;-0.77;58.14;99966.47;5072920;28;48092;-55
2022/12/13 04:02:55;;;;;;;;;24.25;22.00;;;;;-1.05;58.86;99920.81;5074535;28;45442;-53
2022/12/13 04:05:20;;;;;;;;;29.75;20.50;;;;;-0.64;58.88;99984.09;5074661;27;45288;-55
2022/12/13 04:07:46;;;;;;;;;21.00;21.00;;;;;-0.68;58.32;99987.09;5073608;28;45179;-52
2022/12/13 04:10:12;;;;;;;;;28.75;23.75;;;;;-0.66;58.47;99986.94;5049541;28;46217;-56
2022/12/13 04:15:22;;;;;;;;;39.50;23.25;;;;;-0.82;58.73;99937.31;5074377;28;45322;-54
2022/12/13 04:17:47;;;;;;;;;34.25;28.00;;;;;-0.55;58.89;99969.66;5074965;28;45648;-54
2022/12/13 04:20:13;;;;;;;;;25.25;19.00;;;;;-0.56;57.54;99968.84;5073832;28;45629;-53
2022/12/13 04:22:38;;;;;;;;;34.75;27.00;;;;;-0.66;58.49;99957.28;5074271;27;45336;-55
2022/12/13 04:25:04;;;;;;;;;20.25;20.25;;;;;-0.72;58.37;99948.00;5074269;28;45630;-51
2022/12/13 04:27:30;;;;;;;;;22.75;19.00;;;;;-0.72;58.60;99950.69;5074682;28;45811;-54
2022/12/13 04:29:55;;;;;;;;;24.00;20.50;;;;;-0.74;58.37;99949.97;5074003;28;45452;-53
2022/12/13 04:32:21;;;;;;;;;33.75;28.50;;;;;-0.92;58.09;99924.94;5073990;28;45420;-54
2022/12/13 04:34:46;;;;;;;;;21.25;18.25;;;;;-0.67;58.75;99947.50;5074492;27;45359;-54
2022/12/13 04:37:12;;;;;;;;;29.50;21.50;;;;;-0.64;58.70;99951.75;5074678;28;45927;-55
2022/12/13 04:39:37;;;;;;;;;32.50;23.25;;;;;-0.66;58.07;99951.91;5057437;28;45626;-55
2022/12/13 04:42:03;;;;;;;;;33.00;23.50;;;;;-0.68;58.44;99935.06;5054046;28;45529;-54
2022/12/13 04:44:30;;;;;;;;;24.50;24.50;;;;;-0.67;58.35;99942.13;5052711;28;45441;-55
2022/12/13 04:46:56;;;;;;;;;23.25;23.25;;;;;-0.72;57.77;99941.75;5053985;28;45273;-55
2022/12/13 04:49:21;;;;;;;;;21.75;20.00;;;;;-0.76;58.57;99948.47;5053743;28;45334;-54
2022/12/13 04:51:47;;;;;;;;;36.50;27.00;;;;;-1.19;58.50;99871.03;5055415;28;45368;-55
2022/12/13 04:54:12;;;;;;;;;27.25;26.50;;;;;-0.70;58.38;99947.81;5056001;28;45168;-54
2022/12/13 04:56:38;;;;;;;;;28.50;26.00;;;;;-0.79;57.83;99944.25;5057609;28;45358;-55
2022/12/13 04:59:03;;;;;;;;;29.50;26.50;;;;;-1.07;58.58;99913.88;5057136;28;46843;-53
2022/12/13 05:01:29;;;;;;;;;26.00;21.75;;;;;-0.79;58.85;99940.69;5056105;28;45307;-56
2022/12/13 05:03:54;;;;;;;;;42.50;24.00;;;;;-0.91;58.70;99907.78;5038667;28;45433;-56
2022/12/13 05:06:20;;;;;;;;;26.75;20.00;;;;;-0.73;58.69;99938.22;5057351;28;45687;-55
2022/12/13 05:08:45;;;;;;;;;23.75;22.00;;;;;-0.73;58.68;99949.00;5055642;28;45482;-54
2022/12/13 05:11:11;;;;;;;;;26.75;23.75;;;;;-0.69;58.90;99933.38;5067771;27;45452;-54
2022/12/13 05:13:37;;;;;;;;;27.75;26.00;;;;;-0.74;58.81;99923.03;5075804;28;45427;-53
2022/12/13 05:16:04;;;;;;;;;21.50;20.75;;;;;-0.70;58.16;99934.34;5075800;28;45432;-53
2022/12/13 05:18:30;;;;;;;;;31.00;25.75;;;;;-0.73;58.60;99938.22;5075587;28;46590;-50
2022/12/13 05:20:55;;;;;;;;;33.50;24.75;;;;;-0.74;58.14;99935.69;5076751;27;45216;-54
2022/12/13 05:23:22;;;;;;;;;25.25;20.00;;;;;-0.78;58.72;99932.47;5092798;27;45296;-55
2022/12/13 05:25:48;;;;;;;;;24.50;20.50;;;;;-0.79;58.62;99929.91;5077495;27;45399;-54
2022/12/13 05:28:13;;;;;;;;;24.25;19.75;;;;;-1.01;58.51;99900.63;5076761;27;45742;-54
2022/12/13 05:30:39;;;;;;;;;24.75;23.25;;;;;-0.80;58.33;99939.84;5075627;28;45234;-53
2022/12/13 05:33:05;;;;;;;;;27.50;23.25;;;;;-0.88;58.46;99932.56;5077235;27;45406;-55
2022/12/13 05:35:31;;;;;;;;;28.50;25.25;;;;;-0.83;58.69;99924.00;5077077;27;45490;-53
2022/12/13 05:37:57;;;;;;;;;32.25;26.50;;;;;-0.90;58.54;99914.84;5076571;28;47415;-54
2022/12/13 05:40:23;;;;;;;;;31.25;30.25;;;;;-0.93;58.46;99928.63;5074972;28;45450;-52
2022/12/13 05:42:48;;;;;;;;;31.50;26.00;;;;;-0.93;58.84;99942.94;5075532;28;45447;-54
2022/12/13 05:45:14;;;;;;;;;27.00;25.25;;;;;-0.85;58.09;99950.25;5076680;28;45339;-54
2022/12/13 05:47:40;;;;;;;;;27.75;23.25;;;;;-0.87;59.08;99941.47;5075245;28;45426;-55
2022/12/13 05:50:06;;;;;;;;;31.00;29.25;;;;;-0.80;58.99;99956.00;5076520;27;45362;-53
2022/12/13 05:52:31;;;;;;;;;34.00;27.75;;;;;-0.80;58.48;99955.16;5075414;28;45308;-56
2022/12/13 05:54:57;;;;;;;;;30.00;24.00;;;;;-0.75;59.18;99955.56;5077113;28;45213;-52
2022/12/13 05:57:22;;;;;;;;;30.25;23.75;;;;;-0.74;58.91;99952.69;5076417;27;45468;-51
2022/12/13 05:59:48;;;;;;;;;30.00;25.50;;;;;-0.74;58.55;99949.16;5076434;27;45370;-53
2022/12/13 06:02:14;;;;;;;;;30.75;19.00;;;;;-0.98;58.67;99913.78;5076391;27;45429;-54
2022/12/13 06:04:39;;;;;;;;;22.50;21.75;;;;;-0.72;58.56;99958.78;5076632;27;45589;-54
2022/12/13 06:07:05;;;;;;;;;34.25;34.25;;;;;-0.70;58.60;99962.16;5076750;27;45778;-53
2022/12/13 06:09:30;;;;;;;;;28.75;24.25;;;;;-0.74;58.33;99963.47;5076163;28;45487;-54
2022/12/13 06:11:56;;;;;;;;;30.25;23.25;;;;;-0.69;58.36;99974.63;5075094;28;45483;-54
2022/12/13 06:14:21;;;;;;;;;30.50;27.75;;;;;-0.62;59.01;99969.47;5076419;27;45640;-55
2022/12/13 06:16:47;;;;;;;;;30.00;30.00;;;;;-1.08;58.54;99902.25;5076065;27;45583;-56
2022/12/13 06:19:12;;;;;;;;;30.25;24.25;;;;;-0.65;57.98;99977.03;5076378;28;45360;-53
2022/12/13 06:21:38;;;;;;;;;32.50;28.75;;;;;-0.60;58.45;99985.44;5076116;28;45387;-54
2022/12/13 06:24:04;;;;;;;;;24.25;22.75;;;;;-0.69;58.45;99958.44;5074863;28;45564;-55
2022/12/13 06:26:30;;;;;;;;;32.00;26.75;;;;;-0.81;58.56;99932.75;5074427;28;46752;-53
2022/12/13 06:28:55;;;;;;;;;31.75;26.50;;;;;-0.51;57.77;99976.44;5074598;28;46025;-52
2022/12/13 06:31:21;;;;;;;;;30.25;24.25;;;;;-0.51;58.05;99971.03;5075813;27;45284;-50
2022/12/13 06:33:46;;;;;;;;;38.00;30.50;;;;;-0.43;58.20;99983.75;5076531;27;45811;-54
2022/12/13 06:36:12;;;;;;;;;28.00;24.75;;;;;-0.46;57.44;99982.22;5074077;28;46758;-53
2022/12/13 06:38:38;;;;;;;;;30.25;23.75;;;;;-0.44;57.83;99980.19;5074615;28;45429;-55
2022/12/13 06:41:21;;;;;;;;;39.00;26.00;;;;;-0.42;58.05;99982.75;5074132;28;45463;-54
2022/12/13 06:43:47;;;;;;;;;35.75;29.75;;;;;-0.38;58.33;99976.00;5076012;27;45416;-54
2022/12/13 06:46:13;;;;;;;;;30.75;29.00;;;;;-0.42;58.58;99967.38;5074079;28;45325;-55
2022/12/13 06:48:41;;;;;;;;;33.00;26.50;;;;;-0.79;57.42;99913.75;5075512;28;45516;-54
2022/12/13 06:51:07;;;;;;;;;27.00;25.25;;;;;-0.51;57.52;99965.66;5074495;28;45364;-50
2022/12/13 06:53:34;;;;;;;;;25.25;24.00;;;;;-0.78;57.99;99912.72;5075988;27;45415;-50
2022/12/13 06:56:10;;;;;;;;;32.25;28.25;;;;;-0.47;58.20;99961.63;5075280;27;46815;-52
2022/12/13 06:58:36;;;;;;;;;26.50;25.25;;;;;-0.46;58.23;99952.53;5075898;27;45366;-51
2022/12/13 07:01:12;;;;;;;;;29.75;22.00;;;;;-0.45;58.06;99946.16;5073988;28;45429;-54
2022/12/13 07:03:39;;;;;;;;;34.50;30.00;;;;;-0.44;57.43;99945.13;5074712;28;45326;-54
2022/12/13 07:06:13;;;;;;;;;31.00;27.25;;;;;-0.42;58.01;99950.38;5074032;28;45491;-53
2022/12/13 07:08:39;;;;;;;;;31.00;27.00;;;;;-0.48;57.78;99949.16;5075371;27;45359;-51
2022/12/13 07:11:05;;;;;;;;;34.00;26.75;;;;;-0.65;57.88;99909.63;5075473;27;45459;-55
2022/12/13 07:13:30;;;;;;;;;33.50;25.50;;;;;-0.39;57.92;99954.59;5074738;28;45501;-54
2022/12/13 07:15:56;;;;;;;;;24.00;23.00;;;;;-0.48;58.22;99949.16;5073498;28;47427;-55
2022/12/13 07:18:21;;;;;;;;;31.25;24.00;;;;;-0.51;57.93;99962.09;5075026;27;45360;-51
2022/12/13 07:20:47;;;;;;;;;10.50;3.00;;;;;-0.48;57.69;99954.53;5075109;28;45475;-53
2022/12/13 07:23:13;;;;;;;;;31.25;26.25;;;;;-0.48;57.91;99954.53;5075320;28;45580;-57
2022/12/13 07:25:38;;;;;;;;;33.00;28.00;;;;;-0.47;58.00;99963.47;5073641;28;46665;-53
2022/12/13 07:28:06;;;;;;;;;35.00;28.25;;;;;-0.46;58.04;99965.16;5073549;28;45405;-49
2022/12/13 07:30:33;;;;;;;;;29.75;27.75;;;;;-0.72;58.04;99923.75;5075042;27;45392;-52
2022/12/13 07:33:00;;;;;;;;;33.75;29.00;;;;;-0.71;58.28;99927.25;5073876;28;45685;-56
2022/12/13 07:35:26;;;;;;;;;42.25;29.00;;;;;-0.36;58.20;99978.53;5074938;27;46055;-54
2022/12/13 07:37:51;;;;;;;;;31.00;27.00;;;;;-0.62;58.28;99929.03;5074911;28;45428;-54
2022/12/13 07:40:17;;;;;;;;;34.50;25.50;;;;;-0.35;58.29;99978.41;5056837;28;45377;-55
2022/12/13 07:42:51;;;;;;;;;28.25;26.25;;;;;-1.13;58.04;99853.38;5053770;28;45427;-54
2022/12/13 07:45:17;;;;;;;;;31.50;31.50;;;;;-0.38;57.69;99983.25;5054583;28;45463;-53
2022/12/13 07:47:42;;;;;;;;;26.25;25.25;;;;;-0.45;58.23;99981.19;5053337;28;45389;-55
2022/12/13 07:50:08;;;;;;;;;29.50;26.25;;;;;-0.43;57.44;99976.47;5053593;28;45313;-56
2022/12/13 07:52:33;;;;;;;;;43.50;37.00;;;;;-0.46;57.24;99992.13;5054871;28;45564;-54
2022/12/13 07:54:59;;;;;;;;;49.00;36.00;;;;;-0.71;57.75;99965.84;5037418;27;45954;-55
2022/12/13 07:57:25;;;;;;;;;33.25;20.00;;;;;-0.54;57.88;100003.69;5074834;27;45321;-54
2022/12/13 07:59:50;;;;;;;;;34.50;24.00;;;;;-0.56;57.68;100000.31;5075314;28;45324;-53
2022/12/13 08:02:15;;;;;;;;;38.25;33.25;;;;;-0.59;57.75;100014.13;5056975;28;45496;-53
2022/12/13 08:04:42;;;;;;;;;37.50;30.50;;;;;-0.66;58.09;99992.34;5074669;27;46187;-53
2022/12/13 08:07:08;;;;;;;;;34.25;27.00;;;;;-0.48;57.97;100024.63;5073504;28;45418;-54
2022/12/13 08:09:33;;;;;;;;;30.75;28.25;;;;;-0.78;58.19;99964.78;5074679;27;45282;-53
2022/12/13 08:11:59;;;;;;;;;42.33;33.67;;;;;-0.48;57.22;100016.56;5074987;28;45766;-52
2022/12/13 08:14:28;;;;;;;;;40.50;31.50;;;;;-0.53;57.85;100020.72;5074689;27;45770;-54
2022/12/13 08:16:53;;;;;;;;;35.50;29.75;;;;;-0.59;57.92;100009.56;5072692;27;45402;-52
2022/12/13 08:19:19;;;;;;;;;32.00;28.75;;;;;-0.51;58.10;100026.81;5074570;28;45425;-54
2022/12/13 08:21:44;;;;;;;;;37.25;32.75;;;;;-0.50;57.27;100028.50;5074608;28;45648;-53
2022/12/13 08:24:10;;;;;;;;;33.75;30.75;;;;;-0.60;57.89;100033.97;5074565;27;45522;-55
2022/12/13 08:26:35;;;;;;;;;38.00;30.50;;;;;-0.59;57.56;100030.31;5076291;28;45370;-53
2022/12/13 08:29:01;;;;;;;;;38.00;34.00;;;;;-0.65;57.60;100034.44;5076726;28;45384;-51
2022/12/13 08:31:27;;;;;;;;;36.75;26.75;;;;;-0.90;57.92;99984.91;5060679;27;45475;-53
2022/12/13 08:33:52;;;;;;;;;37.25;33.50;;;;;-0.60;57.74;100032.16;5057379;28;45551;-53
2022/12/13 08:36:18;;;;;;;;;42.75;37.75;;;;;-0.57;58.02;100025.59;5057660;28;45640;-56
2022/12/13 08:38:44;;;;;;;;;44.00;29.00;;;;;-0.57;57.41;100039.06;5058763;28;45395;-60
2022/12/13 08:41:10;;;;;;;;;44.33;39.67;;;;;-0.52;57.83;100028.66;5059801;28;45920;-57
2022/12/13 08:43:35;;;;;;;;;64.00;44.00;;;;;-0.48;58.01;100029.19;5077978;27;45475;-59
2022/12/13 08:46:01;;;;;;;;;43.67;43.33;;;;;-0.46;57.86;100013.72;5070135;28;45415;-58
2022/12/13 08:48:27;;;;;;;;;44.00;39.25;;;;;-0.47;57.77;100015.53;5073025;27;45379;-57
2022/12/13 08:50:53;;;;;;;;;72.67;58.67;;;;;-0.39;57.86;100039.03;5075488;28;45369;-57
2022/12/13 08:53:18;;;;;;;;;86.33;68.33;;;;;-0.36;57.41;100027.09;5076082;27;45760;-56
2022/12/13 08:55:44;;;;;;;;;47.33;45.00;;;;;-0.70;57.67;99985.56;5074859;28;45464;-53
2022/12/13 08:58:09;;;;;;;;;41.50;35.25;;;;;-0.50;57.54;100010.47;5059321;27;45476;-59
2022/12/13 09:00:35;;;;;;;;;45.75;37.75;;;;;-0.32;57.38;100036.56;5073957;28;45566;-58
2022/12/13 09:03:02;;;;;;;;;45.00;38.00;;;;;-0.52;57.26;100022.41;5057668;28;45601;-54
2022/12/13 09:05:28;;;;;;;;;36.67;33.00;;;;;-0.44;57.12;100023.34;5076074;27;45687;-59
2022/12/13 09:07:57;;;;;;;;;39.00;32.75;;;;;-0.39;57.06;100027.41;5076046;27;45458;-58
2022/12/13 09:10:23;;;;;;;;;36.75;27.75;;;;;-0.48;57.02;100023.81;5074917;27;45573;-57
2022/12/13 09:12:48;;;;;;;;;42.75;33.00;;;;;-0.49;57.49;100017.56;5070930;28;48186;-56
2022/12/13 09:15:14;;;;;;;;;44.00;34.00;;;;;-0.40;57.68;100005.00;5069878;28;45429;-56
2022/12/13 09:17:39;;;;;;;;;40.50;36.00;;;;;-0.46;57.44;100006.47;5076029;28;45334;-57
2022/12/13 09:20:07;;;;;;;;;45.00;41.67;;;;;-0.37;57.65;100007.34;5075899;28;45643;-58
2022/12/13 09:22:32;;;;;;;;;44.25;32.50;;;;;-0.35;56.88;100009.91;5057644;27;46856;-53
2022/12/13 09:24:58;;;;;;;;;43.75;32.75;;;;;-0.36;57.73;100000.13;5057044;27;45998;-57
2022/12/13 09:27:23;;;;;;;;;42.00;33.75;;;;;-0.32;57.10;100010.44;5043136;27;45851;-54
2022/12/13 09:29:49;;;;;;;;;36.25;31.50;;;;;-0.32;56.94;99998.81;5044044;27;45816;-54
2022/12/13 09:32:15;;;;;;;;;47.25;37.25;;;;;-0.23;56.82;100021.25;5063966;27;45362;-54
2022/12/13 09:34:40;;;;;;;;;38.25;37.25;;;;;-0.25;56.67;100007.09;5072889;28;45428;-52
2022/12/13 09:37:07;;;;;;;;;31.75;29.25;;;;;-0.70;57.00;99945.97;5074214;28;45552;-53
2022/12/13 09:39:33;;;;;;;;;40.33;35.67;;;;;-0.23;56.22;100014.03;5073249;28;45365;-54
2022/12/13 09:41:58;;;;;;;;;42.25;35.50;;;;;-0.21;57.13;100019.28;5074279;27;46319;-56
2022/12/13 09:44:31;;;;;;;;;39.00;33.00;;;;;-0.18;56.91;100014.41;5075277;28;45406;-52
2022/12/13 09:46:57;;;;;;;;;45.75;33.50;;;;;-0.19;56.95;100001.06;5072625;28;45522;-52
2022/12/13 09:49:32;;;;;;;;;36.50;32.00;;;;;-0.12;56.88;100020.16;5075349;28;45348;-53
2022/12/13 09:51:59;;;;;;;;;38.00;35.25;;;;;-0.10;56.41;100012.75;5057314;28;46017;-58
2022/12/13 09:54:25;;;;;;;;;37.75;36.00;;;;;-0.12;57.19;100012.06;5074852;27;45380;-55
2022/12/13 09:56:53;;;;;;;;;36.00;33.50;;;;;-0.14;56.47;100001.44;5073375;28;45416;-52
2022/12/13 09:59:27;;;;;;;;;33.75;33.75;;;;;-0.03;56.51;100005.69;5040763;28;45406;-54
2022/12/13 10:01:54;;;;;;;;;47.00;40.00;;;;;-0.09;56.12;100003.66;5073471;28;45741;-57
2022/12/13 10:04:20;;;;;;;;;40.25;32.75;;;;;-0.10;56.75;99999.25;5074570;27;45482;-52
2022/12/13 10:06:47;;;;;;;;;38.25;30.25;;;;;-0.05;55.95;100011.25;5074924;28;45463;-53
2022/12/13 10:09:13;;;;;;;;;48.25;40.50;;;;;-0.24;55.81;99971.03;5071666;28;45470;-55
2022/12/13 10:11:55;;;;;;;;;45.25;34.00;;;;;-0.01;56.42;100009.06;5054981;28;45405;-54
2022/12/13 10:14:31;;;;;;;;;50.50;37.00;;;;;-0.07;55.59;100001.63;5056390;28;45357;-54
2022/12/13 10:16:59;;;;;;;;;39.00;29.25;;;;;-0.39;56.16;99951.91;5056704;28;45439;-57
2022/12/13 10:19:33;;;;;;;;;41.25;33.25;;;;;-0.28;55.80;99976.75;5056958;28;45421;-55
2022/12/13 10:21:59;;;;;;;;;41.50;37.25;;;;;-0.25;55.87;99972.88;5056286;28;45812;-59
2022/12/13 10:24:29;;;;;;;;;33.33;29.67;;;;;-0.07;55.52;100005.19;5074456;27;45440;-58
2022/12/13 10:27:15;;;;;;;;;38.25;32.50;;;;;-0.06;55.36;100001.47;5075041;27;45629;-54
2022/12/13 10:30:01;;;;;;;;;46.25;33.25;;;;;-0.03;55.35;99998.47;5073287;28;45392;-56
2022/12/13 10:32:27;;;;;;;;;41.25;31.25;;;;;0.05;56.30;99992.25;5072998;28;47077;-57
2022/12/13 10:34:54;;;;;;;;;39.25;32.75;;;;;0.15;55.98;99997.53;5058798;27;45578;-56
2022/12/13 10:37:23;;;;;;;;;40.50;37.00;;;;;0.20;55.47;100002.44;5070613;28;45485;-60
2022/12/13 10:39:49;;;;;;;;;36.75;32.00;;;;;0.22;55.83;99995.03;5069667;27;45764;-54
2022/12/13 10:42:16;;;;;;;;;38.50;34.25;;;;;0.21;55.59;99994.19;5055070;28;46308;-57
2022/12/13 10:44:42;;;;;;;;;38.33;33.33;;;;;-0.52;55.17;99874.13;5072844;28;45474;-54
2022/12/13 10:47:19;;;;;;;;;35.00;33.25;;;;;0.28;55.55;99999.78;5051130;27;45995;-57
2022/12/13 10:49:50;;;;;;;;;39.00;35.25;;;;;0.23;54.42;99988.63;5055831;28;45530;-54
2022/12/13 10:52:28;;;;;;;;;45.25;37.25;;;;;0.22;55.55;99992.34;5061031;27;45830;-59
2022/12/13 10:54:55;;;;;;;;;39.25;38.50;;;;;0.29;55.06;99987.97;5031422;28;45539;-55
2022/12/13 10:57:20;;;;;;;;;48.25;39.75;;;;;0.31;55.51;99979.72;5047294;28;45497;-51
2022/12/13 10:59:49;;;;;;;;;35.67;35.33;;;;;0.29;55.33;99963.69;5048101;27;46198;-58
2022/12/13 11:02:36;;;;;;;;;37.33;34.00;;;;;0.46;55.80;99963.72;5040515;28;46798;-53
2022/12/13 11:05:27;;;;;;;;;37.75;35.75;;;;;0.67;54.39;99964.09;5070186;27;45468;-53
2022/12/13 11:07:56;;;;;;;;;39.00;35.25;;;;;0.75;54.12;99952.44;5068515;28;45420;-56
2022/12/13 11:10:28;;;;;;;;;49.25;42.00;;;;;0.94;53.52;99958.56;5069808;27;45499;-57
2022/12/13 11:13:02;;;;;;;;;40.25;30.25;;;;;1.09;53.77;99945.22;5069299;27;45453;-60
2022/12/13 11:15:29;;;;;;;;;37.50;35.00;;;;;1.01;53.61;99892.00;5067209;27;45423;-54
2022/12/13 11:18:01;;;;;;;;;43.50;32.00;;;;;1.36;52.41;99926.94;5049347;28;45771;-55
2022/12/13 11:20:30;;;;;;;;;31.75;30.00;;;;;1.49;52.88;99929.09;5039903;28;45804;-51
2022/12/13 11:23:05;;;;;;;;;37.75;33.75;;;;;1.27;51.54;99879.31;5069555;27;46194;-55